Monte-Carlo, Monaco
Current Conditions -  °F | °C
As of 5:00 AM on Thursday 27 Nov 2014 (Local Time) from LFMN Reporting Station
Moderate Rain Moderate Rain  
Wind Chill: 57°   Ceiling: 2500
Heat Index: 57°   Visibility: 4mi
Dew Point: 54°   Wind: 9mph
Humidity: 88%   Direction: 330°NNW
Pressure: 29.85"   Gusts: NA
Location:  43.75°N, 7.42°E
Report Text: LFMN 270300Z 33008KT 300V020 7000 RA SCT013 FEW020TCU OVC02514/12 Q1011 TEMPO 5000 SHRA FEW020TCU
Loading
Personal Weather Stations






























Interactive Weather Map New forecast layout! Learn more

10-Day Weather Forecast

Advertisements
Track Severe Weather on mobile